KLM233 SBNT-GMAD
Flight info
| Callsign | KLM233 |
|---|---|
| Flight time | 5h 47m |
| Altitude | FL370 |
| Route | N0488F370 NTL3B SIRED UN873 VUNOK ORARO DCT RAKUD UB623 ONOBI CVS UN873 IPERA/N0478F380 N873 GDV N871 KORAL UG5 SONSO DCT BULOK BULO2A |
| Aircraft | B763/H-VGDW/C |
Departure
| Time | 2026-04-10 16:49 |
|---|---|
| Airport | Natal Air Force Base (SBNT) |
Arrival
| Time | 2026-04-10 22:36 |
|---|---|
| Airport | Al Massira Airport (GMAD) |
| Time | Latitude | Longitude | Altitude | Speed | Heading |
|---|---|---|---|---|---|
| 2026-04-10 16:32 | -5.89985 | -35.24924 | 178 ft | 0 kts | 52° |
| 2026-04-10 16:42 | -5.89989 | -35.24929 | 178 ft | 2 kts | 52° |
| 2026-04-10 16:42 | -5.89998 | -35.24941 | 178 ft | 2 kts | 62° |
| 2026-04-10 16:42 | -5.90003 | -35.24955 | 178 ft | 2 kts | 84° |
| 2026-04-10 16:43 | -5.90003 | -35.24970 | 178 ft | 2 kts | 101° |
| 2026-04-10 16:43 | -5.89998 | -35.24985 | 178 ft | 2 kts | 119° |
| 2026-04-10 16:43 | -5.89990 | -35.24997 | 178 ft | 2 kts | 137° |
| 2026-04-10 16:43 | -5.89985 | -35.25001 | 178 ft | 1 kts | 143° |
| 2026-04-10 16:44 | -5.89983 | -35.25002 | 178 ft | 0 kts | 141° |
| 2026-04-10 16:46 | -5.89988 | -35.24998 | 178 ft | 4 kts | 141° |
| 2026-04-10 16:46 | -5.90021 | -35.24974 | 178 ft | 8 kts | 150° |
| 2026-04-10 16:47 | -5.90070 | -35.24989 | 178 ft | 9 kts | 226° |
| 2026-04-10 16:47 | -5.90116 | -35.25048 | 178 ft | 13 kts | 233° |
| 2026-04-10 16:47 | -5.90169 | -35.25116 | 178 ft | 12 kts | 230° |
| 2026-04-10 16:47 | -5.90213 | -35.25134 | 178 ft | 6 kts | 146° |
| 2026-04-10 16:48 | -5.90291 | -35.25073 | 178 ft | 34 kts | 141° |
| 2026-04-10 16:48 | -5.90638 | -35.24792 | 178 ft | 93 kts | 141° |
| 2026-04-10 16:48 | -5.91278 | -35.24272 | 178 ft | 144 kts | 141° |
| 2026-04-10 16:48 | -5.92132 | -35.23588 | 537 ft | 157 kts | 138° |
| 2026-04-10 16:49 | -5.93052 | -35.23022 | 1057 ft | 165 kts | 160° |
| 2026-04-10 16:49 | -5.94213 | -35.23117 | 1539 ft | 180 kts | 204° |
| 2026-04-10 16:49 | -5.95019 | -35.24052 | 2072 ft | 185 kts | 250° |
| 2026-04-10 16:49 | -5.94981 | -35.25331 | 2491 ft | 192 kts | 294° |
| 2026-04-10 16:50 | -5.94085 | -35.26291 | 2908 ft | 196 kts | 335° |
| 2026-04-10 16:50 | -5.92741 | -35.26450 | 3269 ft | 204 kts | 17° |
| 2026-04-10 16:50 | -5.91415 | -35.25884 | 3727 ft | 213 kts | 25° |
| 2026-04-10 16:50 | -5.90120 | -35.25087 | 4075 ft | 229 kts | 40° |
| 2026-04-10 16:51 | -5.88797 | -35.24099 | 4497 ft | 247 kts | 35° |
| 2026-04-10 16:51 | -5.87296 | -35.23148 | 4909 ft | 266 kts | 32° |
| 2026-04-10 16:51 | -5.85656 | -35.22184 | 5346 ft | 281 kts | 31° |
| 2026-04-10 16:51 | -5.83959 | -35.21232 | 6187 ft | 282 kts | 30° |
| 2026-04-10 16:52 | -5.82244 | -35.20288 | 6983 ft | 285 kts | 30° |
| 2026-04-10 16:52 | -5.80492 | -35.19337 | 7758 ft | 288 kts | 29° |
| 2026-04-10 16:52 | -5.78730 | -35.18387 | 8519 ft | 291 kts | 29° |
| 2026-04-10 16:52 | -5.76952 | -35.17433 | 9282 ft | 294 kts | 29° |
| 2026-04-10 16:53 | -5.75154 | -35.16469 | 10052 ft | 296 kts | 29° |
| 2026-04-10 16:53 | -5.73341 | -35.15498 | 10737 ft | 302 kts | 29° |
| 2026-04-10 16:53 | -5.71465 | -35.14493 | 11247 ft | 314 kts | 28° |
| 2026-04-10 16:53 | -5.69512 | -35.13449 | 11768 ft | 325 kts | 28° |
| 2026-04-10 16:54 | -5.67478 | -35.12360 | 12289 ft | 337 kts | 28° |
| 2026-04-10 16:54 | -5.65384 | -35.11241 | 12805 ft | 349 kts | 28° |
| 2026-04-10 16:54 | -5.63224 | -35.10087 | 13321 ft | 360 kts | 28° |
| 2026-04-10 16:54 | -5.60986 | -35.08890 | 13836 ft | 372 kts | 28° |
| 2026-04-10 16:55 | -5.58681 | -35.07658 | 14350 ft | 383 kts | 28° |
| 2026-04-10 16:55 | -5.56305 | -35.06388 | 14865 ft | 394 kts | 29° |
| 2026-04-10 16:55 | -5.53863 | -35.05082 | 15378 ft | 406 kts | 29° |
| 2026-04-10 16:55 | -5.51340 | -35.03734 | 15910 ft | 415 kts | 29° |
| 2026-04-10 16:56 | -5.48793 | -35.02373 | 16663 ft | 419 kts | 29° |
| 2026-04-10 16:56 | -5.46225 | -35.01001 | 17384 ft | 423 kts | 29° |
| 2026-04-10 16:56 | -5.43630 | -34.99616 | 18102 ft | 428 kts | 29° |
| 2026-04-10 16:56 | -5.41011 | -34.98216 | 18822 ft | 432 kts | 29° |
| 2026-04-10 16:57 | -5.38369 | -34.96804 | 19542 ft | 435 kts | 29° |
| 2026-04-10 16:57 | -5.35696 | -34.95377 | 20245 ft | 439 kts | 28° |
| 2026-04-10 16:57 | -5.32987 | -34.93930 | 20934 ft | 443 kts | 28° |
| 2026-04-10 16:57 | -5.30268 | -34.92479 | 21618 ft | 447 kts | 28° |
| 2026-04-10 16:58 | -5.27524 | -34.91014 | 22260 ft | 451 kts | 28° |
| 2026-04-10 16:58 | -5.24763 | -34.89542 | 22919 ft | 455 kts | 28° |
| 2026-04-10 16:58 | -5.21969 | -34.88051 | 23523 ft | 460 kts | 28° |
| 2026-04-10 16:58 | -5.19154 | -34.86550 | 24170 ft | 463 kts | 28° |
| 2026-04-10 16:59 | -5.16314 | -34.85035 | 24781 ft | 467 kts | 28° |
| 2026-04-10 16:59 | -5.13412 | -34.83487 | 25380 ft | 472 kts | 28° |
| 2026-04-10 16:59 | -5.10516 | -34.81943 | 26008 ft | 476 kts | 28° |
| 2026-04-10 16:59 | -5.07604 | -34.80390 | 26631 ft | 479 kts | 28° |
| 2026-04-10 17:00 | -5.04664 | -34.78823 | 27173 ft | 484 kts | 28° |
| 2026-04-10 17:00 | -5.01701 | -34.77244 | 27774 ft | 487 kts | 28° |
| 2026-04-10 17:00 | -4.98712 | -34.75651 | 28324 ft | 491 kts | 28° |
| 2026-04-10 17:00 | -4.95702 | -34.74046 | 28865 ft | 495 kts | 28° |
| 2026-04-10 17:01 | -4.92656 | -34.72423 | 29639 ft | 493 kts | 28° |
| 2026-04-10 17:01 | -4.89651 | -34.70822 | 30386 ft | 491 kts | 28° |
| 2026-04-10 17:01 | -4.86643 | -34.69219 | 31105 ft | 489 kts | 28° |
| 2026-04-10 17:01 | -4.83658 | -34.67629 | 31795 ft | 487 kts | 28° |
| 2026-04-10 17:02 | -4.80686 | -34.66046 | 32452 ft | 486 kts | 28° |
| 2026-04-10 17:02 | -4.77716 | -34.64464 | 33079 ft | 484 kts | 28° |
| 2026-04-10 17:02 | -4.74755 | -34.62888 | 33677 ft | 483 kts | 28° |
| 2026-04-10 17:02 | -4.71781 | -34.61304 | 34219 ft | 482 kts | 28° |
| 2026-04-10 17:03 | -4.68827 | -34.59731 | 34761 ft | 481 kts | 28° |
| 2026-04-10 17:03 | -4.65882 | -34.58163 | 35290 ft | 479 kts | 27° |
| 2026-04-10 17:03 | -4.62941 | -34.56597 | 35749 ft | 479 kts | 27° |
| 2026-04-10 17:03 | -4.60011 | -34.55038 | 36170 ft | 478 kts | 27° |
| 2026-04-10 17:04 | -4.57085 | -34.53480 | 36562 ft | 478 kts | 27° |
| 2026-04-10 17:04 | -4.54160 | -34.51924 | 36888 ft | 478 kts | 27° |
| 2026-04-10 17:04 | -4.51218 | -34.50358 | 36938 ft | 479 kts | 27° |
| 2026-04-10 17:05 | -4.45360 | -34.47242 | 36939 ft | 477 kts | 27° |
| 2026-04-10 17:05 | -4.39517 | -34.44133 | 36941 ft | 477 kts | 27° |
| 2026-04-10 17:06 | -4.33672 | -34.41024 | 36940 ft | 477 kts | 27° |
| 2026-04-10 17:06 | -4.27793 | -34.37897 | 36940 ft | 478 kts | 27° |
| 2026-04-10 17:07 | -4.21942 | -34.34786 | 36940 ft | 478 kts | 27° |
| 2026-04-10 17:07 | -4.16082 | -34.31671 | 36939 ft | 478 kts | 27° |
| 2026-04-10 17:08 | -4.10220 | -34.28555 | 36939 ft | 478 kts | 27° |
| 2026-04-10 17:08 | -4.04373 | -34.25448 | 36939 ft | 478 kts | 27° |
| 2026-04-10 17:09 | -3.98516 | -34.22336 | 36939 ft | 478 kts | 27° |
| 2026-04-10 17:09 | -3.92665 | -34.19227 | 36939 ft | 478 kts | 27° |
| 2026-04-10 17:10 | -3.86791 | -34.16107 | 36939 ft | 478 kts | 27° |
| 2026-04-10 17:10 | -3.80931 | -34.12994 | 36939 ft | 478 kts | 27° |
| 2026-04-10 17:11 | -3.75074 | -34.09884 | 36939 ft | 478 kts | 27° |
| 2026-04-10 17:11 | -3.69211 | -34.06771 | 36940 ft | 478 kts | 27° |
| 2026-04-10 17:12 | -3.63372 | -34.03671 | 36947 ft | 478 kts | 27° |
| 2026-04-10 17:12 | -3.57524 | -34.00567 | 36957 ft | 478 kts | 27° |
| 2026-04-10 17:13 | -3.51673 | -33.97462 | 36965 ft | 478 kts | 27° |
| 2026-04-10 17:13 | -3.45802 | -33.94347 | 36966 ft | 478 kts | 27° |
| 2026-04-10 17:14 | -3.39938 | -33.91235 | 36966 ft | 478 kts | 27° |
| 2026-04-10 17:14 | -3.34099 | -33.88138 | 36967 ft | 478 kts | 27° |
| 2026-04-10 17:15 | -3.28240 | -33.85030 | 36966 ft | 477 kts | 27° |
| 2026-04-10 17:15 | -3.22410 | -33.81938 | 36966 ft | 477 kts | 27° |
| 2026-04-10 17:16 | -3.16569 | -33.78841 | 36966 ft | 477 kts | 27° |
| 2026-04-10 17:16 | -3.10720 | -33.75739 | 36966 ft | 477 kts | 27° |
| 2026-04-10 17:17 | -3.04848 | -33.72627 | 36966 ft | 477 kts | 27° |
| 2026-04-10 17:17 | -2.99004 | -33.69529 | 36966 ft | 476 kts | 28° |
| 2026-04-10 17:18 | -2.93165 | -33.66434 | 36966 ft | 476 kts | 28° |
| 2026-04-10 17:18 | -2.87298 | -33.63325 | 36966 ft | 476 kts | 28° |
| 2026-04-10 17:19 | -2.81474 | -33.60239 | 36967 ft | 476 kts | 28° |
| 2026-04-10 17:19 | -2.75642 | -33.57149 | 36957 ft | 476 kts | 28° |
| 2026-04-10 17:20 | -2.69818 | -33.54064 | 36912 ft | 475 kts | 28° |
| 2026-04-10 17:20 | -2.63979 | -33.50971 | 36913 ft | 476 kts | 28° |
| 2026-04-10 17:21 | -2.55234 | -33.46334 | 36912 ft | 476 kts | 28° |
| 2026-04-10 17:21 | -2.49397 | -33.43240 | 36912 ft | 476 kts | 28° |
| 2026-04-10 17:22 | -2.43543 | -33.40136 | 36912 ft | 476 kts | 28° |
| 2026-04-10 17:22 | -2.37714 | -33.37047 | 36912 ft | 476 kts | 28° |
| 2026-04-10 17:23 | -2.31897 | -33.33964 | 36912 ft | 476 kts | 27° |
| 2026-04-10 17:23 | -2.26042 | -33.30861 | 36912 ft | 476 kts | 27° |
| 2026-04-10 17:24 | -2.20219 | -33.27775 | 36912 ft | 476 kts | 27° |
| 2026-04-10 17:24 | -2.14387 | -33.24685 | 36912 ft | 476 kts | 27° |
| 2026-04-10 17:25 | -2.08558 | -33.21597 | 36912 ft | 475 kts | 27° |
| 2026-04-10 17:25 | -2.02696 | -33.18492 | 36912 ft | 476 kts | 28° |
| 2026-04-10 17:26 | -1.96864 | -33.15402 | 36912 ft | 476 kts | 28° |
| 2026-04-10 17:26 | -1.91041 | -33.12318 | 36912 ft | 476 kts | 28° |
| 2026-04-10 17:27 | -1.85192 | -33.09220 | 36912 ft | 476 kts | 28° |
| 2026-04-10 17:27 | -1.79355 | -33.06129 | 36912 ft | 476 kts | 28° |
| 2026-04-10 17:28 | -1.73519 | -33.03038 | 36912 ft | 476 kts | 28° |
| 2026-04-10 17:28 | -1.67681 | -32.99947 | 36912 ft | 476 kts | 28° |
| 2026-04-10 17:29 | -1.61810 | -32.96838 | 36912 ft | 476 kts | 28° |
| 2026-04-10 17:29 | -1.55972 | -32.93748 | 36912 ft | 476 kts | 28° |
| 2026-04-10 17:30 | -1.50136 | -32.90658 | 36912 ft | 476 kts | 28° |
| 2026-04-10 17:30 | -1.44292 | -32.87564 | 36912 ft | 476 kts | 28° |
| 2026-04-10 17:31 | -1.38462 | -32.84478 | 36912 ft | 476 kts | 28° |
| 2026-04-10 17:31 | -1.32620 | -32.81385 | 36912 ft | 476 kts | 28° |
| 2026-04-10 17:32 | -1.26794 | -32.78302 | 36912 ft | 476 kts | 28° |
| 2026-04-10 17:32 | -1.20935 | -32.75201 | 36913 ft | 477 kts | 28° |
| 2026-04-10 17:33 | -1.15092 | -32.72108 | 36912 ft | 477 kts | 28° |
| 2026-04-10 17:33 | -1.09236 | -32.69009 | 36912 ft | 477 kts | 28° |
| 2026-04-10 17:34 | -1.03380 | -32.65910 | 36912 ft | 477 kts | 28° |
| 2026-04-10 17:34 | -0.97544 | -32.62822 | 36912 ft | 477 kts | 28° |
| 2026-04-10 17:35 | -0.91691 | -32.59725 | 36912 ft | 477 kts | 28° |
| 2026-04-10 17:35 | -0.85833 | -32.56626 | 36912 ft | 477 kts | 28° |
| 2026-04-10 17:36 | -0.79961 | -32.53518 | 36912 ft | 477 kts | 28° |
| 2026-04-10 17:36 | -0.74095 | -32.50415 | 36913 ft | 478 kts | 28° |
| 2026-04-10 17:37 | -0.68239 | -32.47317 | 36912 ft | 478 kts | 28° |
| 2026-04-10 17:37 | -0.62371 | -32.44212 | 36912 ft | 478 kts | 28° |
| 2026-04-10 17:38 | -0.56529 | -32.41121 | 36912 ft | 477 kts | 28° |
| 2026-04-10 17:38 | -0.50666 | -32.38020 | 36911 ft | 478 kts | 28° |
| 2026-04-10 17:39 | -0.44797 | -32.34914 | 36912 ft | 479 kts | 28° |
| 2026-04-10 17:39 | -0.38895 | -32.31792 | 36912 ft | 479 kts | 28° |
| 2026-04-10 17:40 | -0.33022 | -32.28686 | 36912 ft | 478 kts | 28° |
| 2026-04-10 17:40 | -0.27159 | -32.25585 | 36913 ft | 479 kts | 28° |
| 2026-04-10 17:41 | -0.21271 | -32.22469 | 36912 ft | 479 kts | 28° |
| 2026-04-10 17:41 | -0.15412 | -32.19370 | 36913 ft | 479 kts | 28° |
| 2026-04-10 17:42 | -0.09534 | -32.16261 | 36913 ft | 479 kts | 28° |
| 2026-04-10 17:42 | -0.03662 | -32.13154 | 36913 ft | 479 kts | 28° |
| 2026-04-10 17:43 | 0.02240 | -32.10033 | 36913 ft | 479 kts | 28° |
| 2026-04-10 17:43 | 0.08122 | -32.06921 | 36913 ft | 479 kts | 28° |
| 2026-04-10 17:44 | 0.13988 | -32.03818 | 36912 ft | 479 kts | 28° |
| 2026-04-10 17:44 | 0.19890 | -32.00696 | 36912 ft | 479 kts | 28° |
| 2026-04-10 17:45 | 0.25759 | -31.97591 | 36912 ft | 479 kts | 28° |
| 2026-04-10 17:45 | 0.31626 | -31.94487 | 36912 ft | 479 kts | 28° |
| 2026-04-10 17:46 | 0.37492 | -31.91384 | 36911 ft | 479 kts | 28° |
| 2026-04-10 17:46 | 0.43395 | -31.88262 | 36912 ft | 480 kts | 28° |
| 2026-04-10 17:47 | 0.49268 | -31.85155 | 36912 ft | 479 kts | 28° |
| 2026-04-10 17:47 | 0.55155 | -31.82040 | 36912 ft | 480 kts | 28° |
| 2026-04-10 17:48 | 0.61061 | -31.78916 | 36913 ft | 481 kts | 28° |
| 2026-04-10 17:48 | 0.66975 | -31.75787 | 36912 ft | 481 kts | 28° |
| 2026-04-10 17:49 | 0.72858 | -31.72674 | 36912 ft | 481 kts | 28° |
| 2026-04-10 17:49 | 0.78755 | -31.69554 | 36912 ft | 481 kts | 28° |
| 2026-04-10 17:50 | 0.84673 | -31.66423 | 36913 ft | 482 kts | 28° |
| 2026-04-10 17:50 | 0.90589 | -31.63292 | 36913 ft | 482 kts | 28° |
| 2026-04-10 17:51 | 0.96500 | -31.60164 | 36912 ft | 482 kts | 28° |
| 2026-04-10 17:51 | 1.02443 | -31.57020 | 36913 ft | 483 kts | 28° |
| 2026-04-10 17:52 | 1.08368 | -31.53884 | 36913 ft | 483 kts | 28° |
| 2026-04-10 17:52 | 1.14289 | -31.50751 | 36912 ft | 484 kts | 28° |
| 2026-04-10 17:53 | 1.20213 | -31.47616 | 36911 ft | 484 kts | 28° |
| 2026-04-10 17:53 | 1.26162 | -31.44467 | 36912 ft | 484 kts | 28° |
| 2026-04-10 17:54 | 1.32092 | -31.41329 | 36912 ft | 485 kts | 29° |
| 2026-04-10 17:54 | 1.38039 | -31.38181 | 36911 ft | 485 kts | 29° |
| 2026-04-10 17:55 | 1.44004 | -31.35023 | 36912 ft | 484 kts | 29° |
| 2026-04-10 17:55 | 1.49955 | -31.31872 | 36912 ft | 485 kts | 29° |
| 2026-04-10 17:56 | 1.55901 | -31.28725 | 36914 ft | 485 kts | 29° |
| 2026-04-10 17:56 | 1.61839 | -31.25581 | 36912 ft | 485 kts | 29° |
| 2026-04-10 17:57 | 1.67806 | -31.22421 | 36941 ft | 485 kts | 29° |
| 2026-04-10 17:57 | 1.73745 | -31.19277 | 36940 ft | 485 kts | 29° |
| 2026-04-10 17:58 | 1.79693 | -31.16127 | 36940 ft | 485 kts | 29° |
| 2026-04-10 17:58 | 1.85684 | -31.12954 | 36941 ft | 485 kts | 29° |
| 2026-04-10 17:59 | 1.91630 | -31.09805 | 36941 ft | 485 kts | 29° |
| 2026-04-10 17:59 | 1.97557 | -31.06665 | 36941 ft | 484 kts | 29° |
| 2026-04-10 18:00 | 2.03495 | -31.03520 | 36943 ft | 488 kts | 29° |
| 2026-04-10 18:00 | 2.09484 | -31.00347 | 36940 ft | 488 kts | 29° |
| 2026-04-10 18:01 | 2.15465 | -30.97178 | 36938 ft | 488 kts | 29° |
| 2026-04-10 18:01 | 2.21402 | -30.93908 | 36937 ft | 487 kts | 35° |
| 2026-04-10 18:02 | 2.26337 | -30.89348 | 36946 ft | 483 kts | 53° |
| 2026-04-10 18:02 | 2.30219 | -30.83895 | 36938 ft | 482 kts | 57° |
| 2026-04-10 18:03 | 2.33980 | -30.78378 | 36938 ft | 481 kts | 58° |
| 2026-04-10 18:03 | 2.37705 | -30.72837 | 36938 ft | 481 kts | 58° |
| 2026-04-10 18:04 | 2.41420 | -30.67290 | 36939 ft | 480 kts | 58° |
| 2026-04-10 18:04 | 2.45123 | -30.61752 | 36939 ft | 480 kts | 58° |
| 2026-04-10 18:05 | 2.48825 | -30.56213 | 36938 ft | 480 kts | 58° |
| 2026-04-10 18:05 | 2.52542 | -30.50652 | 36939 ft | 480 kts | 58° |
| 2026-04-10 18:06 | 2.56237 | -30.45122 | 36939 ft | 480 kts | 58° |
| 2026-04-10 18:06 | 2.59933 | -30.39590 | 36939 ft | 480 kts | 58° |
| 2026-04-10 18:07 | 2.63637 | -30.34046 | 36939 ft | 480 kts | 58° |
| 2026-04-10 18:07 | 2.67347 | -30.28493 | 36940 ft | 480 kts | 58° |
| 2026-04-10 18:08 | 2.71045 | -30.22956 | 36940 ft | 480 kts | 58° |
| 2026-04-10 18:08 | 2.74752 | -30.17405 | 36940 ft | 480 kts | 58° |
| 2026-04-10 18:09 | 2.80319 | -30.09067 | 36940 ft | 481 kts | 58° |
| 2026-04-10 18:10 | 2.84028 | -30.03512 | 36941 ft | 482 kts | 58° |
| 2026-04-10 18:10 | 2.87740 | -29.97951 | 36942 ft | 481 kts | 58° |
| 2026-04-10 18:11 | 2.91457 | -29.92382 | 36941 ft | 481 kts | 58° |
| 2026-04-10 18:11 | 2.95160 | -29.86831 | 36941 ft | 481 kts | 58° |
| 2026-04-10 18:12 | 2.98865 | -29.81279 | 36941 ft | 482 kts | 58° |
| 2026-04-10 18:12 | 3.02576 | -29.75717 | 36941 ft | 483 kts | 58° |
| 2026-04-10 18:13 | 3.06302 | -29.70130 | 36941 ft | 483 kts | 58° |
| 2026-04-10 18:13 | 3.10019 | -29.64557 | 36942 ft | 483 kts | 58° |
| 2026-04-10 18:14 | 3.13745 | -29.58970 | 36938 ft | 483 kts | 58° |
| 2026-04-10 18:14 | 3.17493 | -29.53348 | 36938 ft | 484 kts | 58° |
| 2026-04-10 18:15 | 3.21216 | -29.47764 | 36938 ft | 484 kts | 58° |
| 2026-04-10 18:15 | 3.24939 | -29.42178 | 36938 ft | 484 kts | 58° |
| 2026-04-10 18:16 | 3.28666 | -29.36586 | 36938 ft | 484 kts | 58° |
| 2026-04-10 18:16 | 3.32413 | -29.30962 | 36939 ft | 485 kts | 58° |
| 2026-04-10 18:17 | 3.36146 | -29.25358 | 36938 ft | 484 kts | 58° |
| 2026-04-10 18:17 | 3.40307 | -29.20052 | 36939 ft | 487 kts | 45° |
| 2026-04-10 18:18 | 3.45858 | -29.16147 | 36940 ft | 490 kts | 27° |
| 2026-04-10 18:18 | 3.52045 | -29.13301 | 36939 ft | 491 kts | 25° |
| 2026-04-10 18:19 | 3.58230 | -29.10500 | 36939 ft | 491 kts | 25° |
| 2026-04-10 18:19 | 3.64437 | -29.07700 | 36940 ft | 492 kts | 25° |
| 2026-04-10 18:20 | 3.70678 | -29.04888 | 36940 ft | 492 kts | 25° |
| 2026-04-10 18:20 | 3.76911 | -29.02080 | 36940 ft | 492 kts | 25° |
| 2026-04-10 18:21 | 3.83133 | -28.99277 | 36941 ft | 492 kts | 25° |
| 2026-04-10 18:21 | 3.89379 | -28.96462 | 36941 ft | 492 kts | 25° |
| 2026-04-10 18:22 | 3.95592 | -28.93661 | 36941 ft | 492 kts | 25° |
| 2026-04-10 18:22 | 4.01803 | -28.90861 | 36939 ft | 493 kts | 25° |
| 2026-04-10 18:23 | 4.08068 | -28.88037 | 36942 ft | 496 kts | 24° |
| 2026-04-10 18:23 | 4.14346 | -28.85207 | 36937 ft | 494 kts | 25° |
| 2026-04-10 18:24 | 4.20607 | -28.82383 | 36938 ft | 495 kts | 25° |
| 2026-04-10 18:24 | 4.26877 | -28.79555 | 36938 ft | 495 kts | 25° |
| 2026-04-10 18:25 | 4.33154 | -28.76723 | 36939 ft | 495 kts | 25° |
| 2026-04-10 18:25 | 4.39412 | -28.73899 | 36939 ft | 495 kts | 25° |
| 2026-04-10 18:26 | 4.45660 | -28.71079 | 36938 ft | 495 kts | 24° |
| 2026-04-10 18:26 | 4.51920 | -28.68253 | 36940 ft | 496 kts | 24° |
| 2026-04-10 18:27 | 4.58201 | -28.65417 | 36940 ft | 496 kts | 24° |
| 2026-04-10 18:27 | 4.64466 | -28.62588 | 36941 ft | 496 kts | 24° |
| 2026-04-10 18:28 | 4.70733 | -28.59757 | 36949 ft | 496 kts | 24° |
| 2026-04-10 18:28 | 4.77036 | -28.56910 | 36960 ft | 496 kts | 24° |
| 2026-04-10 18:29 | 4.83325 | -28.54068 | 36968 ft | 496 kts | 24° |
| 2026-04-10 18:29 | 4.89580 | -28.51241 | 36968 ft | 496 kts | 24° |
| 2026-04-10 18:30 | 4.95857 | -28.48403 | 36970 ft | 498 kts | 24° |
| 2026-04-10 18:30 | 5.02158 | -28.45554 | 36970 ft | 497 kts | 24° |
| 2026-04-10 18:31 | 5.08433 | -28.42716 | 36970 ft | 497 kts | 24° |
| 2026-04-10 18:31 | 5.14720 | -28.39873 | 36966 ft | 498 kts | 24° |
| 2026-04-10 18:32 | 5.21042 | -28.37013 | 36966 ft | 498 kts | 24° |
| 2026-04-10 18:32 | 5.27336 | -28.34165 | 36966 ft | 499 kts | 24° |
| 2026-04-10 18:33 | 5.33655 | -28.31305 | 36964 ft | 499 kts | 24° |
| 2026-04-10 18:33 | 5.39953 | -28.28453 | 36965 ft | 499 kts | 24° |
| 2026-04-10 18:34 | 5.46277 | -28.25589 | 36964 ft | 499 kts | 24° |
| 2026-04-10 18:34 | 5.52600 | -28.22725 | 36966 ft | 500 kts | 24° |
| 2026-04-10 18:35 | 5.58920 | -28.19862 | 36966 ft | 500 kts | 24° |
| 2026-04-10 18:35 | 5.65258 | -28.16990 | 36966 ft | 500 kts | 24° |
| 2026-04-10 18:36 | 5.71584 | -28.14123 | 36967 ft | 500 kts | 24° |
| 2026-04-10 18:36 | 5.77904 | -28.11258 | 36967 ft | 500 kts | 24° |
| 2026-04-10 18:37 | 5.84213 | -28.08396 | 36968 ft | 500 kts | 24° |
| 2026-04-10 18:37 | 5.90541 | -28.05526 | 36968 ft | 500 kts | 24° |
| 2026-04-10 18:38 | 5.96845 | -28.02666 | 36969 ft | 500 kts | 24° |
| 2026-04-10 18:38 | 6.03160 | -27.99800 | 36969 ft | 500 kts | 24° |
| 2026-04-10 18:39 | 6.09500 | -27.96922 | 36969 ft | 500 kts | 24° |
| 2026-04-10 18:39 | 6.15811 | -27.94056 | 36965 ft | 499 kts | 24° |
| 2026-04-10 18:40 | 6.22150 | -27.91177 | 36966 ft | 501 kts | 24° |
| 2026-04-10 18:40 | 6.28483 | -27.88300 | 36965 ft | 501 kts | 24° |
| 2026-04-10 18:41 | 6.34818 | -27.85421 | 36965 ft | 499 kts | 24° |
| 2026-04-10 18:41 | 6.41112 | -27.82560 | 36966 ft | 500 kts | 24° |
| 2026-04-10 18:42 | 6.47438 | -27.79684 | 36966 ft | 501 kts | 24° |
| 2026-04-10 18:42 | 6.53780 | -27.76800 | 36967 ft | 500 kts | 24° |
| 2026-04-10 18:43 | 6.60102 | -27.73924 | 36968 ft | 500 kts | 24° |
| 2026-04-10 18:43 | 6.66425 | -27.71046 | 36968 ft | 500 kts | 24° |
| 2026-04-10 18:44 | 6.72754 | -27.68165 | 36970 ft | 501 kts | 23° |
| 2026-04-10 18:44 | 6.79103 | -27.65274 | 36969 ft | 501 kts | 23° |
| 2026-04-10 18:45 | 6.85425 | -27.62395 | 36970 ft | 502 kts | 23° |
| 2026-04-10 18:45 | 6.91754 | -27.59512 | 36970 ft | 502 kts | 23° |
| 2026-04-10 18:46 | 6.98121 | -27.56610 | 36971 ft | 501 kts | 23° |
| 2026-04-10 18:46 | 7.04483 | -27.53710 | 36972 ft | 503 kts | 23° |
| 2026-04-10 18:47 | 7.10841 | -27.50811 | 36970 ft | 502 kts | 23° |
| 2026-04-10 18:47 | 7.17187 | -27.47917 | 36967 ft | 502 kts | 23° |
| 2026-04-10 18:48 | 7.23567 | -27.45006 | 36968 ft | 504 kts | 23° |
| 2026-04-10 18:48 | 7.29921 | -27.42106 | 36968 ft | 503 kts | 23° |
| 2026-04-10 18:49 | 7.36267 | -27.39208 | 36968 ft | 503 kts | 23° |
| 2026-04-10 18:49 | 7.42667 | -27.36286 | 36969 ft | 504 kts | 23° |
| 2026-04-10 18:50 | 7.49024 | -27.33381 | 36963 ft | 504 kts | 23° |
| 2026-04-10 18:50 | 7.55396 | -27.30470 | 36965 ft | 504 kts | 23° |
| 2026-04-10 18:51 | 7.61759 | -27.27561 | 36965 ft | 504 kts | 23° |
| 2026-04-10 18:51 | 7.68144 | -27.24641 | 36966 ft | 504 kts | 23° |
| 2026-04-10 18:52 | 7.74510 | -27.21729 | 36974 ft | 504 kts | 23° |
| 2026-04-10 18:52 | 7.80864 | -27.18821 | 36985 ft | 504 kts | 23° |
| 2026-04-10 18:53 | 7.87248 | -27.15899 | 36994 ft | 504 kts | 23° |
| 2026-04-10 18:53 | 7.93611 | -27.12985 | 36995 ft | 504 kts | 23° |
| 2026-04-10 18:54 | 7.99976 | -27.10070 | 36995 ft | 504 kts | 23° |
| 2026-04-10 18:54 | 8.06365 | -27.07141 | 36998 ft | 507 kts | 22° |
| 2026-04-10 18:55 | 8.12774 | -27.04204 | 36990 ft | 505 kts | 22° |
| 2026-04-10 18:55 | 8.19160 | -27.01276 | 36992 ft | 505 kts | 22° |
| 2026-04-10 18:56 | 8.25552 | -26.98344 | 36992 ft | 505 kts | 22° |
| 2026-04-10 18:56 | 8.31952 | -26.95407 | 36992 ft | 505 kts | 22° |
| 2026-04-10 18:57 | 8.38331 | -26.92479 | 36993 ft | 505 kts | 22° |
| 2026-04-10 18:57 | 8.44710 | -26.89550 | 36994 ft | 505 kts | 22° |
| 2026-04-10 18:58 | 8.51100 | -26.86615 | 36994 ft | 505 kts | 22° |
| 2026-04-10 18:58 | 8.57505 | -26.83671 | 36995 ft | 505 kts | 22° |
| 2026-04-10 18:59 | 8.63889 | -26.80737 | 36995 ft | 506 kts | 22° |
| 2026-04-10 18:59 | 8.70279 | -26.77798 | 36995 ft | 505 kts | 22° |
| 2026-04-10 19:00 | 8.76669 | -26.74858 | 36997 ft | 505 kts | 22° |
| 2026-04-10 19:00 | 8.83037 | -26.71928 | 36997 ft | 505 kts | 22° |
| 2026-04-10 19:01 | 8.89411 | -26.68993 | 36998 ft | 506 kts | 22° |
| 2026-04-10 19:01 | 8.95784 | -26.66057 | 36998 ft | 505 kts | 22° |
| 2026-04-10 19:02 | 9.02192 | -26.63105 | 36998 ft | 505 kts | 22° |
| 2026-04-10 19:02 | 9.08595 | -26.60153 | 37001 ft | 506 kts | 22° |
| 2026-04-10 19:03 | 9.14964 | -26.57217 | 36995 ft | 505 kts | 22° |
| 2026-04-10 19:03 | 9.21354 | -26.54269 | 36996 ft | 504 kts | 21° |
| 2026-04-10 19:04 | 9.27737 | -26.51324 | 36997 ft | 505 kts | 21° |
| 2026-04-10 19:04 | 9.34105 | -26.48384 | 36996 ft | 504 kts | 21° |
| 2026-04-10 19:05 | 9.40463 | -26.45447 | 36999 ft | 505 kts | 21° |
| 2026-04-10 19:05 | 9.46875 | -26.42484 | 36997 ft | 504 kts | 21° |
| 2026-04-10 19:06 | 9.53263 | -26.39532 | 37000 ft | 505 kts | 21° |
| 2026-04-10 19:06 | 9.59639 | -26.36583 | 36999 ft | 504 kts | 21° |
| 2026-04-10 19:07 | 9.66026 | -26.33629 | 36990 ft | 504 kts | 21° |
| 2026-04-10 19:07 | 9.72383 | -26.30687 | 36992 ft | 505 kts | 21° |
| 2026-04-10 19:08 | 9.78754 | -26.27737 | 36991 ft | 504 kts | 21° |
| 2026-04-10 19:08 | 9.85122 | -26.24787 | 36992 ft | 504 kts | 21° |
| 2026-04-10 19:09 | 9.91521 | -26.21822 | 36993 ft | 504 kts | 21° |
| 2026-04-10 19:09 | 9.97891 | -26.18869 | 36993 ft | 504 kts | 21° |
| 2026-04-10 19:10 | 10.04256 | -26.15917 | 36994 ft | 504 kts | 21° |
| 2026-04-10 19:10 | 10.10632 | -26.12958 | 36993 ft | 504 kts | 21° |
| 2026-04-10 19:11 | 10.16978 | -26.10013 | 36991 ft | 504 kts | 21° |
| 2026-04-10 19:11 | 10.23323 | -26.07065 | 36992 ft | 505 kts | 21° |
| 2026-04-10 19:12 | 10.29710 | -26.04098 | 36992 ft | 505 kts | 21° |
| 2026-04-10 19:12 | 10.36117 | -26.01120 | 36992 ft | 505 kts | 21° |
| 2026-04-10 19:13 | 10.42495 | -25.98154 | 36993 ft | 506 kts | 21° |
| 2026-04-10 19:13 | 10.48850 | -25.95197 | 36993 ft | 504 kts | 21° |
| 2026-04-10 19:14 | 10.55240 | -25.92223 | 36995 ft | 505 kts | 21° |
| 2026-04-10 19:14 | 10.61607 | -25.89258 | 36995 ft | 505 kts | 20° |
| 2026-04-10 19:15 | 10.67980 | -25.86289 | 36996 ft | 506 kts | 20° |
| 2026-04-10 19:15 | 10.74349 | -25.83321 | 36996 ft | 507 kts | 20° |
| 2026-04-10 19:16 | 10.80777 | -25.80323 | 36996 ft | 507 kts | 20° |
| 2026-04-10 19:16 | 10.87182 | -25.77335 | 36997 ft | 507 kts | 20° |
| 2026-04-10 19:17 | 10.96797 | -25.72847 | 36998 ft | 508 kts | 20° |
| 2026-04-10 19:17 | 11.03218 | -25.69847 | 36999 ft | 509 kts | 20° |
| 2026-04-10 19:18 | 11.09630 | -25.66850 | 37000 ft | 509 kts | 20° |
| 2026-04-10 19:18 | 11.16036 | -25.63856 | 36997 ft | 509 kts | 20° |
| 2026-04-10 19:19 | 11.22487 | -25.60839 | 36997 ft | 510 kts | 20° |
| 2026-04-10 19:19 | 11.28919 | -25.57829 | 36997 ft | 510 kts | 20° |
| 2026-04-10 19:20 | 11.35344 | -25.54820 | 36999 ft | 511 kts | 20° |
| 2026-04-10 19:20 | 11.41784 | -25.51803 | 37007 ft | 511 kts | 19° |
| 2026-04-10 19:21 | 11.48248 | -25.48773 | 37018 ft | 511 kts | 19° |
| 2026-04-10 19:21 | 11.54698 | -25.45749 | 37029 ft | 512 kts | 19° |
| 2026-04-10 19:22 | 11.61128 | -25.42731 | 37028 ft | 510 kts | 19° |
| 2026-04-10 19:22 | 11.67579 | -25.39704 | 37030 ft | 511 kts | 19° |
| 2026-04-10 19:23 | 11.74018 | -25.36679 | 37031 ft | 511 kts | 19° |
| 2026-04-10 19:23 | 11.80459 | -25.33653 | 37015 ft | 511 kts | 19° |
| 2026-04-10 19:24 | 11.86906 | -25.30622 | 37017 ft | 511 kts | 19° |
| 2026-04-10 19:24 | 11.93394 | -25.27570 | 37018 ft | 511 kts | 19° |
| 2026-04-10 19:25 | 11.99855 | -25.24530 | 37019 ft | 511 kts | 19° |
| 2026-04-10 19:25 | 12.06296 | -25.21496 | 37020 ft | 513 kts | 19° |
| 2026-04-10 19:26 | 12.12768 | -25.18447 | 37015 ft | 512 kts | 19° |
| 2026-04-10 19:26 | 12.19227 | -25.15402 | 37017 ft | 513 kts | 19° |
| 2026-04-10 19:27 | 12.25686 | -25.12355 | 37017 ft | 513 kts | 19° |
| 2026-04-10 19:27 | 12.32161 | -25.09300 | 37018 ft | 513 kts | 19° |
| 2026-04-10 19:28 | 12.38639 | -25.06242 | 37019 ft | 513 kts | 19° |
| 2026-04-10 19:28 | 12.45100 | -25.03189 | 37019 ft | 513 kts | 19° |
| 2026-04-10 19:29 | 12.51565 | -25.00133 | 37021 ft | 513 kts | 19° |
| 2026-04-10 19:29 | 12.58036 | -24.97072 | 37021 ft | 512 kts | 19° |
| 2026-04-10 19:30 | 12.64481 | -24.94023 | 37022 ft | 513 kts | 19° |
| 2026-04-10 19:30 | 12.70925 | -24.90972 | 37022 ft | 513 kts | 19° |
| 2026-04-10 19:31 | 12.77400 | -24.87905 | 37024 ft | 514 kts | 19° |
| 2026-04-10 19:31 | 12.83917 | -24.84815 | 37024 ft | 514 kts | 19° |
| 2026-04-10 19:32 | 12.90387 | -24.81747 | 37025 ft | 514 kts | 19° |
| 2026-04-10 19:32 | 12.96864 | -24.78673 | 37025 ft | 514 kts | 19° |
| 2026-04-10 19:33 | 13.03368 | -24.75584 | 37027 ft | 515 kts | 18° |
| 2026-04-10 19:33 | 13.09852 | -24.72504 | 37027 ft | 515 kts | 18° |
| 2026-04-10 19:34 | 13.16322 | -24.69429 | 37024 ft | 515 kts | 18° |
| 2026-04-10 19:34 | 13.22813 | -24.66341 | 37024 ft | 513 kts | 18° |
| 2026-04-10 19:35 | 13.29327 | -24.63241 | 37026 ft | 515 kts | 18° |
| 2026-04-10 19:35 | 13.35811 | -24.60153 | 37026 ft | 514 kts | 18° |
| 2026-04-10 19:36 | 13.42273 | -24.57074 | 37027 ft | 514 kts | 18° |
| 2026-04-10 19:36 | 13.48769 | -24.53977 | 37028 ft | 515 kts | 18° |
| 2026-04-10 19:37 | 13.55237 | -24.50891 | 37029 ft | 515 kts | 18° |
| 2026-04-10 19:37 | 13.61726 | -24.47793 | 37030 ft | 515 kts | 18° |
| 2026-04-10 19:38 | 13.68212 | -24.44695 | 37031 ft | 515 kts | 18° |
| 2026-04-10 19:38 | 13.74730 | -24.41556 | 37032 ft | 514 kts | 18° |
| 2026-04-10 19:39 | 13.81202 | -24.38432 | 37033 ft | 514 kts | 18° |
| 2026-04-10 19:39 | 13.87671 | -24.35308 | 37033 ft | 515 kts | 18° |
| 2026-04-10 19:40 | 13.94164 | -24.32171 | 37016 ft | 514 kts | 18° |
| 2026-04-10 19:40 | 14.00626 | -24.29046 | 37017 ft | 515 kts | 18° |
| 2026-04-10 19:41 | 14.07095 | -24.25916 | 37018 ft | 515 kts | 18° |
| 2026-04-10 19:41 | 14.13555 | -24.22788 | 37014 ft | 515 kts | 18° |
| 2026-04-10 19:42 | 14.20043 | -24.19645 | 37016 ft | 515 kts | 18° |
| 2026-04-10 19:42 | 14.26500 | -24.16515 | 37016 ft | 515 kts | 18° |
| 2026-04-10 19:43 | 14.32952 | -24.13385 | 37017 ft | 515 kts | 18° |
| 2026-04-10 19:43 | 14.39437 | -24.10237 | 37018 ft | 515 kts | 18° |
| 2026-04-10 19:44 | 14.45926 | -24.07086 | 37019 ft | 517 kts | 18° |
| 2026-04-10 19:44 | 14.52407 | -24.03936 | 37019 ft | 516 kts | 18° |
| 2026-04-10 19:45 | 14.58923 | -24.00767 | 37021 ft | 517 kts | 18° |
| 2026-04-10 19:45 | 14.65410 | -23.97610 | 37020 ft | 516 kts | 18° |
| 2026-04-10 19:46 | 14.71885 | -23.94458 | 37023 ft | 517 kts | 18° |
| 2026-04-10 19:46 | 14.78379 | -23.91293 | 37022 ft | 518 kts | 18° |
| 2026-04-10 19:47 | 14.84882 | -23.88121 | 37024 ft | 517 kts | 18° |
| 2026-04-10 19:47 | 14.91392 | -23.84946 | 37025 ft | 519 kts | 18° |
| 2026-04-10 19:48 | 14.97907 | -23.81765 | 37026 ft | 520 kts | 18° |
| 2026-04-10 19:48 | 15.04448 | -23.78568 | 37027 ft | 520 kts | 18° |
| 2026-04-10 19:49 | 15.10969 | -23.75379 | 37026 ft | 520 kts | 18° |
| 2026-04-10 19:49 | 15.17488 | -23.72190 | 37024 ft | 520 kts | 18° |
| 2026-04-10 19:50 | 15.24011 | -23.68997 | 37023 ft | 520 kts | 18° |
| 2026-04-10 19:50 | 15.30592 | -23.65772 | 37026 ft | 522 kts | 18° |
| 2026-04-10 19:51 | 15.37143 | -23.62560 | 37026 ft | 521 kts | 18° |
| 2026-04-10 19:51 | 15.43679 | -23.59353 | 37027 ft | 522 kts | 18° |
| 2026-04-10 19:52 | 15.50239 | -23.56133 | 37029 ft | 523 kts | 18° |
| 2026-04-10 19:52 | 15.56792 | -23.52913 | 37034 ft | 523 kts | 18° |
| 2026-04-10 19:53 | 15.63340 | -23.49693 | 37047 ft | 523 kts | 18° |
| 2026-04-10 19:53 | 15.69896 | -23.46468 | 37057 ft | 523 kts | 18° |
| 2026-04-10 19:54 | 15.76475 | -23.43228 | 37059 ft | 523 kts | 18° |
| 2026-04-10 19:54 | 15.82971 | -23.40027 | 37060 ft | 523 kts | 18° |
| 2026-04-10 19:55 | 15.89527 | -23.36795 | 37061 ft | 523 kts | 18° |
| 2026-04-10 19:55 | 15.96101 | -23.33551 | 37042 ft | 523 kts | 19° |
| 2026-04-10 19:56 | 16.02661 | -23.30311 | 37043 ft | 524 kts | 18° |
| 2026-04-10 19:56 | 16.09260 | -23.27051 | 37045 ft | 526 kts | 18° |
| 2026-04-10 19:57 | 16.15870 | -23.23782 | 37040 ft | 525 kts | 18° |
| 2026-04-10 19:57 | 16.22500 | -23.20501 | 37042 ft | 526 kts | 18° |
| 2026-04-10 19:58 | 16.29100 | -23.17232 | 37043 ft | 526 kts | 18° |
| 2026-04-10 19:58 | 16.35704 | -23.13959 | 37043 ft | 526 kts | 18° |
| 2026-04-10 19:59 | 16.42308 | -23.10683 | 37044 ft | 526 kts | 18° |
| 2026-04-10 19:59 | 16.48894 | -23.07414 | 37045 ft | 527 kts | 18° |
| 2026-04-10 20:00 | 16.55490 | -23.04138 | 37047 ft | 526 kts | 18° |
| 2026-04-10 20:00 | 16.62085 | -23.00858 | 37048 ft | 526 kts | 18° |
| 2026-04-10 20:01 | 16.68695 | -22.97570 | 37049 ft | 526 kts | 18° |
| 2026-04-10 20:01 | 16.75222 | -22.94122 | 37054 ft | 532 kts | 23° |
| 2026-04-10 20:02 | 16.81605 | -22.90275 | 37051 ft | 532 kts | 23° |
| 2026-04-10 20:02 | 16.87991 | -22.86410 | 37053 ft | 532 kts | 23° |
| 2026-04-10 20:03 | 16.94396 | -22.82524 | 37053 ft | 532 kts | 23° |
| 2026-04-10 20:03 | 17.00778 | -22.78648 | 37055 ft | 533 kts | 23° |
| 2026-04-10 20:04 | 17.07193 | -22.74749 | 37056 ft | 533 kts | 23° |
| 2026-04-10 20:04 | 17.13607 | -22.70847 | 37051 ft | 534 kts | 22° |
| 2026-04-10 20:05 | 17.20032 | -22.66936 | 37053 ft | 536 kts | 22° |
| 2026-04-10 20:05 | 17.26439 | -22.63031 | 37052 ft | 536 kts | 22° |
| 2026-04-10 20:06 | 17.32821 | -22.59139 | 37055 ft | 536 kts | 22° |
| 2026-04-10 20:06 | 17.39268 | -22.55204 | 37056 ft | 537 kts | 22° |
| 2026-04-10 20:07 | 17.48906 | -22.49315 | 37059 ft | 537 kts | 22° |
| 2026-04-10 20:08 | 17.55344 | -22.45377 | 37059 ft | 537 kts | 22° |
| 2026-04-10 20:08 | 17.61813 | -22.41418 | 37061 ft | 538 kts | 22° |
| 2026-04-10 20:09 | 17.68255 | -22.37471 | 37062 ft | 538 kts | 22° |
| 2026-04-10 20:09 | 17.74705 | -22.33516 | 37040 ft | 538 kts | 22° |
| 2026-04-10 20:10 | 17.81198 | -22.29532 | 37043 ft | 539 kts | 22° |
| 2026-04-10 20:10 | 17.87660 | -22.25563 | 37043 ft | 539 kts | 22° |
| 2026-04-10 20:11 | 17.94106 | -22.21601 | 37044 ft | 539 kts | 22° |
| 2026-04-10 20:11 | 18.00567 | -22.17626 | 37046 ft | 540 kts | 22° |
| 2026-04-10 20:12 | 18.07038 | -22.13641 | 37048 ft | 539 kts | 22° |
| 2026-04-10 20:12 | 18.13505 | -22.09655 | 37042 ft | 539 kts | 22° |
| 2026-04-10 20:13 | 18.19965 | -22.05670 | 37044 ft | 539 kts | 22° |
| 2026-04-10 20:13 | 18.26455 | -22.01663 | 37045 ft | 539 kts | 22° |
| 2026-04-10 20:14 | 18.32886 | -21.97690 | 37047 ft | 539 kts | 22° |
| 2026-04-10 20:14 | 18.39319 | -21.93710 | 37049 ft | 538 kts | 22° |
| 2026-04-10 20:15 | 18.45732 | -21.89741 | 37049 ft | 537 kts | 22° |
| 2026-04-10 20:15 | 18.52190 | -21.85740 | 37051 ft | 537 kts | 22° |
| 2026-04-10 20:16 | 18.58606 | -21.81762 | 37052 ft | 537 kts | 22° |
| 2026-04-10 20:16 | 18.65046 | -21.77765 | 37053 ft | 537 kts | 22° |
| 2026-04-10 20:17 | 18.71501 | -21.73755 | 37054 ft | 537 kts | 22° |
| 2026-04-10 20:17 | 18.77915 | -21.69767 | 37055 ft | 536 kts | 22° |
| 2026-04-10 20:18 | 18.84305 | -21.65791 | 37058 ft | 536 kts | 22° |
| 2026-04-10 20:18 | 18.90695 | -21.61811 | 37058 ft | 535 kts | 22° |
| 2026-04-10 20:19 | 18.97102 | -21.57816 | 37059 ft | 535 kts | 22° |
| 2026-04-10 20:19 | 19.03493 | -21.53829 | 37060 ft | 535 kts | 22° |
| 2026-04-10 20:20 | 19.09883 | -21.49837 | 37062 ft | 534 kts | 22° |
| 2026-04-10 20:20 | 19.16261 | -21.45851 | 37058 ft | 532 kts | 22° |
| 2026-04-10 20:21 | 19.22617 | -21.41875 | 37059 ft | 533 kts | 22° |
| 2026-04-10 20:21 | 19.28972 | -21.37895 | 37060 ft | 534 kts | 22° |
| 2026-04-10 20:22 | 19.35317 | -21.33918 | 37043 ft | 533 kts | 22° |
| 2026-04-10 20:22 | 19.41694 | -21.29918 | 37072 ft | 534 kts | 22° |
| 2026-04-10 20:22 | 19.44872 | -21.27921 | 37188 ft | 533 kts | 22° |
| 2026-04-10 20:23 | 19.48044 | -21.25929 | 37300 ft | 533 kts | 22° |
| 2026-04-10 20:23 | 19.51235 | -21.23924 | 37416 ft | 534 kts | 22° |
| 2026-04-10 20:23 | 19.54409 | -21.21928 | 37531 ft | 534 kts | 22° |
| 2026-04-10 20:23 | 19.57602 | -21.19922 | 37647 ft | 536 kts | 22° |
| 2026-04-10 20:24 | 19.60794 | -21.17913 | 37765 ft | 537 kts | 22° |
| 2026-04-10 20:24 | 19.63989 | -21.15901 | 37883 ft | 537 kts | 22° |
| 2026-04-10 20:24 | 19.67207 | -21.13873 | 38002 ft | 537 kts | 22° |
| 2026-04-10 20:25 | 19.73612 | -21.09837 | 38045 ft | 538 kts | 22° |
| 2026-04-10 20:25 | 19.79994 | -21.05808 | 38045 ft | 535 kts | 22° |
| 2026-04-10 20:26 | 19.86391 | -21.01770 | 38049 ft | 535 kts | 22° |
| 2026-04-10 20:26 | 19.91705 | -20.98411 | 38049 ft | 535 kts | 22° |
| 2026-04-10 20:27 | 19.99156 | -20.93697 | 38051 ft | 535 kts | 22° |
| 2026-04-10 20:27 | 20.05528 | -20.89661 | 38047 ft | 529 kts | 22° |
| 2026-04-10 20:28 | 20.11841 | -20.85660 | 38052 ft | 531 kts | 22° |
| 2026-04-10 20:28 | 20.18145 | -20.81660 | 38049 ft | 529 kts | 22° |
| 2026-04-10 20:29 | 20.24436 | -20.77665 | 38051 ft | 529 kts | 22° |
| 2026-04-10 20:29 | 20.30752 | -20.73650 | 38052 ft | 529 kts | 22° |
| 2026-04-10 20:30 | 20.37037 | -20.69650 | 38053 ft | 529 kts | 22° |
| 2026-04-10 20:30 | 20.43336 | -20.65628 | 38054 ft | 529 kts | 22° |
| 2026-04-10 20:31 | 20.49642 | -20.61598 | 38055 ft | 528 kts | 22° |
| 2026-04-10 20:31 | 20.55918 | -20.57583 | 38057 ft | 529 kts | 22° |
| 2026-04-10 20:32 | 20.62194 | -20.53564 | 38057 ft | 528 kts | 22° |
| 2026-04-10 20:32 | 20.68446 | -20.49557 | 38058 ft | 527 kts | 23° |
| 2026-04-10 20:33 | 20.74722 | -20.45531 | 38060 ft | 527 kts | 23° |
| 2026-04-10 20:33 | 20.80971 | -20.41518 | 38061 ft | 526 kts | 23° |
| 2026-04-10 20:34 | 20.86194 | -20.38160 | 38062 ft | 526 kts | 23° |
| 2026-04-10 20:34 | 20.93479 | -20.33473 | 38041 ft | 525 kts | 24° |
| 2026-04-10 20:35 | 20.99713 | -20.29458 | 38049 ft | 524 kts | 24° |
| 2026-04-10 20:35 | 21.05939 | -20.25444 | 38072 ft | 524 kts | 24° |
| 2026-04-10 20:36 | 21.12157 | -20.21431 | 38089 ft | 523 kts | 24° |
| 2026-04-10 20:36 | 21.18384 | -20.17409 | 38097 ft | 524 kts | 24° |
| 2026-04-10 20:37 | 21.24579 | -20.13402 | 38097 ft | 522 kts | 24° |
| 2026-04-10 20:37 | 21.30770 | -20.09395 | 38099 ft | 522 kts | 24° |
| 2026-04-10 20:38 | 21.35937 | -20.06047 | 38100 ft | 521 kts | 25° |
| 2026-04-10 20:38 | 21.43142 | -20.01374 | 38100 ft | 520 kts | 25° |
| 2026-04-10 20:39 | 21.49302 | -19.97374 | 38100 ft | 518 kts | 25° |
| 2026-04-10 20:39 | 21.55442 | -19.93386 | 38102 ft | 519 kts | 25° |
| 2026-04-10 20:40 | 21.61608 | -19.89374 | 38104 ft | 519 kts | 25° |
| 2026-04-10 20:40 | 21.67744 | -19.85378 | 38104 ft | 518 kts | 25° |
| 2026-04-10 20:41 | 21.73881 | -19.81378 | 38106 ft | 518 kts | 25° |
| 2026-04-10 20:41 | 21.80041 | -19.77359 | 38107 ft | 519 kts | 25° |
| 2026-04-10 20:42 | 21.86202 | -19.73334 | 38106 ft | 519 kts | 25° |
| 2026-04-10 20:42 | 21.92353 | -19.69312 | 38108 ft | 519 kts | 25° |
| 2026-04-10 20:43 | 21.98490 | -19.65295 | 38108 ft | 519 kts | 25° |
| 2026-04-10 20:43 | 22.04636 | -19.61269 | 38107 ft | 516 kts | 25° |
| 2026-04-10 20:44 | 22.10746 | -19.57261 | 38111 ft | 517 kts | 25° |
| 2026-04-10 20:44 | 22.16848 | -19.53255 | 38107 ft | 515 kts | 25° |
| 2026-04-10 20:45 | 22.22970 | -19.49233 | 38109 ft | 515 kts | 25° |
| 2026-04-10 20:45 | 22.29072 | -19.45218 | 38109 ft | 515 kts | 25° |
| 2026-04-10 20:46 | 22.35170 | -19.41202 | 38109 ft | 514 kts | 25° |
| 2026-04-10 20:46 | 22.41264 | -19.37184 | 38110 ft | 513 kts | 25° |
| 2026-04-10 20:47 | 22.46334 | -19.33839 | 38097 ft | 512 kts | 26° |
| 2026-04-10 20:47 | 22.53395 | -19.29175 | 38097 ft | 512 kts | 26° |
| 2026-04-10 20:48 | 22.59435 | -19.25181 | 38097 ft | 511 kts | 26° |
| 2026-04-10 20:48 | 22.65507 | -19.21161 | 38098 ft | 510 kts | 26° |
| 2026-04-10 20:49 | 22.71532 | -19.17168 | 38098 ft | 509 kts | 26° |
| 2026-04-10 20:49 | 22.77548 | -19.13177 | 38100 ft | 509 kts | 26° |
| 2026-04-10 20:50 | 22.83574 | -19.09176 | 38100 ft | 508 kts | 26° |
| 2026-04-10 20:50 | 22.89610 | -19.05163 | 38101 ft | 508 kts | 26° |
| 2026-04-10 20:51 | 22.95596 | -19.01179 | 38100 ft | 506 kts | 26° |
| 2026-04-10 20:51 | 23.01582 | -18.97191 | 38102 ft | 506 kts | 26° |
| 2026-04-10 20:52 | 23.07584 | -18.93189 | 38102 ft | 505 kts | 27° |
| 2026-04-10 20:52 | 23.13549 | -18.89207 | 38101 ft | 505 kts | 27° |
| 2026-04-10 20:53 | 23.19521 | -18.85216 | 38103 ft | 504 kts | 27° |
| 2026-04-10 20:53 | 23.25465 | -18.81239 | 38103 ft | 503 kts | 27° |
| 2026-04-10 20:54 | 23.30433 | -18.77913 | 38103 ft | 503 kts | 27° |
| 2026-04-10 20:54 | 23.37355 | -18.73272 | 38104 ft | 502 kts | 27° |
| 2026-04-10 20:55 | 23.43266 | -18.69305 | 38105 ft | 500 kts | 27° |
| 2026-04-10 20:55 | 23.48184 | -18.66001 | 38105 ft | 499 kts | 27° |
| 2026-04-10 20:56 | 23.55055 | -18.61381 | 38106 ft | 499 kts | 27° |
| 2026-04-10 20:56 | 23.60938 | -18.57419 | 38106 ft | 498 kts | 27° |
| 2026-04-10 20:57 | 23.66794 | -18.53472 | 38107 ft | 497 kts | 27° |
| 2026-04-10 20:57 | 23.72672 | -18.49507 | 38107 ft | 497 kts | 27° |
| 2026-04-10 20:58 | 23.78523 | -18.45554 | 38107 ft | 496 kts | 27° |
| 2026-04-10 20:58 | 23.84356 | -18.41610 | 38107 ft | 495 kts | 27° |
| 2026-04-10 20:59 | 23.90208 | -18.37649 | 38122 ft | 495 kts | 28° |
| 2026-04-10 20:59 | 23.96032 | -18.33702 | 38134 ft | 495 kts | 28° |
| 2026-04-10 21:00 | 24.00878 | -18.30416 | 38150 ft | 493 kts | 28° |
| 2026-04-10 21:00 | 24.06699 | -18.26463 | 38152 ft | 492 kts | 28° |
| 2026-04-10 21:01 | 24.13476 | -18.21857 | 38153 ft | 493 kts | 28° |
| 2026-04-10 21:01 | 24.19275 | -18.17910 | 38154 ft | 493 kts | 28° |
| 2026-04-10 21:02 | 24.25078 | -18.13957 | 38154 ft | 492 kts | 28° |
| 2026-04-10 21:02 | 24.30880 | -18.09999 | 38155 ft | 492 kts | 28° |
| 2026-04-10 21:03 | 24.36663 | -18.06051 | 38155 ft | 493 kts | 28° |
| 2026-04-10 21:03 | 24.42452 | -18.02094 | 38155 ft | 492 kts | 28° |
| 2026-04-10 21:04 | 24.48234 | -17.98137 | 38155 ft | 491 kts | 28° |
| 2026-04-10 21:04 | 24.54046 | -17.94156 | 38155 ft | 491 kts | 28° |
| 2026-04-10 21:05 | 24.59813 | -17.90201 | 38155 ft | 490 kts | 28° |
| 2026-04-10 21:05 | 24.65583 | -17.86240 | 38155 ft | 489 kts | 28° |
| 2026-04-10 21:06 | 24.71339 | -17.82283 | 38157 ft | 489 kts | 28° |
| 2026-04-10 21:06 | 24.76102 | -17.79006 | 38157 ft | 488 kts | 28° |
| 2026-04-10 21:07 | 24.82781 | -17.74407 | 38157 ft | 487 kts | 28° |
| 2026-04-10 21:07 | 24.87554 | -17.71115 | 38157 ft | 486 kts | 28° |
| 2026-04-10 21:08 | 24.94213 | -17.66519 | 38157 ft | 485 kts | 28° |
| 2026-04-10 21:08 | 24.99916 | -17.62577 | 38157 ft | 484 kts | 28° |
| 2026-04-10 21:09 | 25.05610 | -17.58637 | 38156 ft | 483 kts | 28° |
| 2026-04-10 21:09 | 25.11298 | -17.54697 | 38159 ft | 483 kts | 28° |
| 2026-04-10 21:10 | 25.16951 | -17.50778 | 38166 ft | 482 kts | 28° |
| 2026-04-10 21:10 | 25.22604 | -17.46854 | 38176 ft | 481 kts | 28° |
| 2026-04-10 21:11 | 25.27314 | -17.43581 | 38184 ft | 481 kts | 28° |
| 2026-04-10 21:11 | 25.33896 | -17.39003 | 38188 ft | 481 kts | 28° |
| 2026-04-10 21:12 | 25.38582 | -17.35739 | 38187 ft | 480 kts | 28° |
| 2026-04-10 21:12 | 25.45162 | -17.31151 | 38180 ft | 480 kts | 28° |
| 2026-04-10 21:13 | 25.50803 | -17.27214 | 38181 ft | 480 kts | 28° |
| 2026-04-10 21:13 | 25.55478 | -17.23946 | 38180 ft | 479 kts | 28° |
| 2026-04-10 21:14 | 25.62031 | -17.19362 | 38181 ft | 479 kts | 28° |
| 2026-04-10 21:14 | 25.66723 | -17.16076 | 38181 ft | 479 kts | 28° |
| 2026-04-10 21:15 | 25.76081 | -17.09513 | 38181 ft | 479 kts | 28° |
| 2026-04-10 21:15 | 25.81685 | -17.05576 | 38181 ft | 479 kts | 28° |
| 2026-04-10 21:16 | 25.86379 | -17.02276 | 38180 ft | 479 kts | 28° |
| 2026-04-10 21:16 | 25.92931 | -16.97663 | 38175 ft | 479 kts | 28° |
| 2026-04-10 21:17 | 25.98530 | -16.93717 | 38170 ft | 478 kts | 28° |
| 2026-04-10 21:17 | 26.04112 | -16.89776 | 38160 ft | 472 kts | 27° |
| 2026-04-10 21:18 | 26.09653 | -16.85864 | 38163 ft | 472 kts | 27° |
| 2026-04-10 21:18 | 26.15201 | -16.81940 | 38162 ft | 473 kts | 27° |
| 2026-04-10 21:19 | 26.20727 | -16.78027 | 38158 ft | 471 kts | 27° |
| 2026-04-10 21:19 | 26.26244 | -16.74117 | 38188 ft | 472 kts | 27° |
| 2026-04-10 21:20 | 26.30866 | -16.70837 | 38186 ft | 473 kts | 27° |
| 2026-04-10 21:20 | 26.37322 | -16.66251 | 38186 ft | 472 kts | 27° |
| 2026-04-10 21:21 | 26.42525 | -16.62550 | 38186 ft | 472 kts | 27° |
| 2026-04-10 21:21 | 26.48063 | -16.58606 | 38185 ft | 471 kts | 27° |
| 2026-04-10 21:22 | 26.53587 | -16.54669 | 38186 ft | 471 kts | 27° |
| 2026-04-10 21:22 | 26.59089 | -16.50741 | 38185 ft | 470 kts | 27° |
| 2026-04-10 21:23 | 26.64590 | -16.46811 | 38186 ft | 471 kts | 27° |
| 2026-04-10 21:23 | 26.69180 | -16.43527 | 38185 ft | 469 kts | 27° |
| 2026-04-10 21:24 | 26.75600 | -16.38930 | 38185 ft | 469 kts | 27° |
| 2026-04-10 21:24 | 26.80170 | -16.35653 | 38185 ft | 468 kts | 27° |
| 2026-04-10 21:25 | 26.85219 | -16.32029 | 38177 ft | 467 kts | 27° |
| 2026-04-10 21:25 | 26.89561 | -16.28910 | 38177 ft | 466 kts | 27° |
| 2026-04-10 21:26 | 26.94081 | -16.25660 | 38176 ft | 466 kts | 27° |
| 2026-04-10 21:26 | 27.00403 | -16.21108 | 38177 ft | 464 kts | 27° |
| 2026-04-10 21:27 | 27.05820 | -16.17203 | 38175 ft | 463 kts | 27° |
| 2026-04-10 21:27 | 27.11213 | -16.13311 | 38182 ft | 463 kts | 27° |
| 2026-04-10 21:28 | 27.15716 | -16.10058 | 38185 ft | 462 kts | 27° |
| 2026-04-10 21:28 | 27.21992 | -16.05518 | 38184 ft | 460 kts | 27° |
| 2026-04-10 21:29 | 27.27342 | -16.01643 | 38185 ft | 459 kts | 27° |
| 2026-04-10 21:29 | 27.32669 | -15.97779 | 38184 ft | 456 kts | 26° |
| 2026-04-10 21:30 | 27.37982 | -15.93924 | 38186 ft | 456 kts | 26° |
| 2026-04-10 21:30 | 27.43301 | -15.90059 | 38184 ft | 455 kts | 26° |
| 2026-04-10 21:31 | 27.48590 | -15.86211 | 38184 ft | 454 kts | 26° |
| 2026-04-10 21:31 | 27.53866 | -15.82368 | 38182 ft | 453 kts | 26° |
| 2026-04-10 21:32 | 27.59152 | -15.78513 | 38184 ft | 453 kts | 26° |
| 2026-04-10 21:32 | 27.63524 | -15.75321 | 38182 ft | 452 kts | 26° |
| 2026-04-10 21:33 | 27.68782 | -15.71478 | 38183 ft | 452 kts | 26° |
| 2026-04-10 21:33 | 27.74923 | -15.66985 | 38182 ft | 452 kts | 26° |
| 2026-04-10 21:34 | 27.79313 | -15.63769 | 38182 ft | 452 kts | 26° |
| 2026-04-10 21:34 | 27.85461 | -15.59259 | 38181 ft | 452 kts | 26° |
| 2026-04-10 21:35 | 27.90719 | -15.55398 | 38181 ft | 452 kts | 26° |
| 2026-04-10 21:35 | 27.95982 | -15.51528 | 38180 ft | 452 kts | 26° |
| 2026-04-10 21:36 | 28.01225 | -15.47668 | 38183 ft | 451 kts | 26° |
| 2026-04-10 21:36 | 28.05498 | -15.44390 | 38175 ft | 450 kts | 32° |
| 2026-04-10 21:37 | 28.08478 | -15.40997 | 38189 ft | 465 kts | 44° |
| 2026-04-10 21:37 | 28.10406 | -15.38052 | 38189 ft | 469 kts | 46° |
| 2026-04-10 21:37 | 28.14167 | -15.32005 | 38184 ft | 469 kts | 48° |
| 2026-04-10 21:38 | 28.17232 | -15.26947 | 38185 ft | 470 kts | 48° |
| 2026-04-10 21:38 | 28.20908 | -15.20822 | 38185 ft | 470 kts | 48° |
| 2026-04-10 21:39 | 28.25172 | -15.13684 | 38185 ft | 469 kts | 48° |
| 2026-04-10 21:39 | 28.28812 | -15.07575 | 38180 ft | 469 kts | 48° |
| 2026-04-10 21:40 | 28.32445 | -15.01467 | 38166 ft | 469 kts | 47° |
| 2026-04-10 21:40 | 28.36081 | -14.95346 | 38152 ft | 469 kts | 47° |
| 2026-04-10 21:41 | 28.39721 | -14.89209 | 38138 ft | 469 kts | 47° |
| 2026-04-10 21:41 | 28.43347 | -14.83086 | 38131 ft | 468 kts | 47° |
| 2026-04-10 21:42 | 28.46966 | -14.76967 | 38131 ft | 468 kts | 47° |
| 2026-04-10 21:42 | 28.50603 | -14.70810 | 38132 ft | 470 kts | 47° |
| 2026-04-10 21:43 | 28.54231 | -14.64656 | 38130 ft | 469 kts | 47° |
| 2026-04-10 21:43 | 28.57841 | -14.58525 | 38131 ft | 469 kts | 47° |
| 2026-04-10 21:44 | 28.61455 | -14.52378 | 38131 ft | 469 kts | 47° |
| 2026-04-10 21:44 | 28.65075 | -14.46212 | 38131 ft | 469 kts | 47° |
| 2026-04-10 21:45 | 28.68679 | -14.40064 | 38131 ft | 469 kts | 47° |
| 2026-04-10 21:45 | 28.71687 | -14.34927 | 38131 ft | 469 kts | 47° |
| 2026-04-10 21:46 | 28.75888 | -14.27742 | 38121 ft | 467 kts | 47° |
| 2026-04-10 21:46 | 28.79474 | -14.21597 | 38122 ft | 468 kts | 47° |
| 2026-04-10 21:47 | 28.83057 | -14.15450 | 38122 ft | 467 kts | 47° |
| 2026-04-10 21:47 | 28.86042 | -14.10321 | 38121 ft | 466 kts | 47° |
| 2026-04-10 21:48 | 28.90208 | -14.03152 | 38121 ft | 465 kts | 47° |
| 2026-04-10 21:48 | 28.93764 | -13.97026 | 38119 ft | 468 kts | 47° |
| 2026-04-10 21:49 | 28.97361 | -13.90821 | 38121 ft | 471 kts | 47° |
| 2026-04-10 21:49 | 29.00362 | -13.85630 | 38148 ft | 468 kts | 47° |
| 2026-04-10 21:50 | 29.03937 | -13.79445 | 38149 ft | 469 kts | 47° |
| 2026-04-10 21:50 | 29.08118 | -13.72199 | 38150 ft | 470 kts | 47° |
| 2026-04-10 21:51 | 29.11700 | -13.65978 | 38166 ft | 469 kts | 47° |
| 2026-04-10 21:51 | 29.15275 | -13.59761 | 38166 ft | 468 kts | 47° |
| 2026-04-10 21:52 | 29.18838 | -13.53558 | 38165 ft | 469 kts | 47° |
| 2026-04-10 21:52 | 29.22403 | -13.47341 | 38165 ft | 469 kts | 47° |
| 2026-04-10 21:53 | 29.25381 | -13.42140 | 38165 ft | 470 kts | 47° |
| 2026-04-10 21:53 | 29.29548 | -13.34852 | 38165 ft | 470 kts | 47° |
| 2026-04-10 21:54 | 29.33115 | -13.28604 | 38156 ft | 471 kts | 48° |
| 2026-04-10 21:54 | 29.36685 | -13.22340 | 38157 ft | 473 kts | 48° |
| 2026-04-10 21:55 | 29.40273 | -13.16033 | 38153 ft | 472 kts | 48° |
| 2026-04-10 21:55 | 29.43838 | -13.09759 | 38145 ft | 471 kts | 48° |
| 2026-04-10 21:56 | 29.47411 | -13.03462 | 38140 ft | 473 kts | 48° |
| 2026-04-10 21:56 | 29.50403 | -12.98181 | 38132 ft | 473 kts | 48° |
| 2026-04-10 21:57 | 29.54579 | -12.90800 | 38129 ft | 475 kts | 49° |
| 2026-04-10 21:57 | 29.58163 | -12.84453 | 38129 ft | 476 kts | 49° |
| 2026-04-10 21:58 | 29.61741 | -12.78105 | 38128 ft | 476 kts | 49° |
| 2026-04-10 21:58 | 29.65330 | -12.71731 | 38129 ft | 477 kts | 49° |
| 2026-04-10 21:59 | 29.68920 | -12.65344 | 38129 ft | 477 kts | 49° |
| 2026-04-10 21:59 | 29.71923 | -12.59993 | 38130 ft | 478 kts | 50° |
| 2026-04-10 22:00 | 29.75600 | -12.53664 | 38128 ft | 475 kts | 48° |
| 2026-04-10 22:00 | 29.79322 | -12.47381 | 38130 ft | 477 kts | 49° |
| 2026-04-10 22:01 | 29.83658 | -12.40044 | 38129 ft | 476 kts | 49° |
| 2026-04-10 22:01 | 29.87369 | -12.33753 | 38126 ft | 477 kts | 49° |
| 2026-04-10 22:02 | 29.91092 | -12.27432 | 38121 ft | 477 kts | 50° |
| 2026-04-10 22:02 | 29.94184 | -12.22175 | 38121 ft | 477 kts | 50° |
| 2026-04-10 22:03 | 29.98488 | -12.14797 | 38104 ft | 479 kts | 52° |
| 2026-04-10 22:03 | 30.01082 | -12.07617 | 38098 ft | 495 kts | 71° |
| 2026-04-10 22:04 | 30.01901 | -12.01043 | 38081 ft | 502 kts | 79° |
| 2026-04-10 22:04 | 30.02722 | -11.91729 | 38069 ft | 501 kts | 79° |
| 2026-04-10 22:05 | 30.03386 | -11.83722 | 37666 ft | 506 kts | 79° |
| 2026-04-10 22:05 | 30.03604 | -11.81028 | 37321 ft | 502 kts | 79° |
| 2026-04-10 22:05 | 30.04032 | -11.75725 | 36547 ft | 496 kts | 78° |
| 2026-04-10 22:06 | 30.04347 | -11.71801 | 35965 ft | 492 kts | 77° |
| 2026-04-10 22:06 | 30.04659 | -11.67900 | 35379 ft | 487 kts | 77° |
| 2026-04-10 22:06 | 30.04863 | -11.65340 | 34992 ft | 484 kts | 77° |
| 2026-04-10 22:06 | 30.05170 | -11.61483 | 34433 ft | 479 kts | 76° |
| 2026-04-10 22:07 | 30.05569 | -11.56452 | 33718 ft | 472 kts | 76° |
| 2026-04-10 22:07 | 30.05767 | -11.53941 | 33356 ft | 469 kts | 76° |
| 2026-04-10 22:07 | 30.06060 | -11.50237 | 32817 ft | 464 kts | 75° |
| 2026-04-10 22:08 | 30.06768 | -11.41303 | 31568 ft | 487 kts | 76° |
| 2026-04-10 22:08 | 30.07062 | -11.37454 | 31002 ft | 481 kts | 76° |
| 2026-04-10 22:08 | 30.07355 | -11.33652 | 30434 ft | 476 kts | 76° |
| 2026-04-10 22:08 | 30.07550 | -11.31119 | 30057 ft | 473 kts | 76° |
| 2026-04-10 22:09 | 30.07936 | -11.26125 | 29331 ft | 468 kts | 77° |
| 2026-04-10 22:09 | 30.08126 | -11.23658 | 28970 ft | 465 kts | 77° |
| 2026-04-10 22:09 | 30.08502 | -11.18746 | 28245 ft | 459 kts | 78° |
| 2026-04-10 22:09 | 30.08686 | -11.16330 | 27888 ft | 457 kts | 78° |
| 2026-04-10 22:10 | 30.08960 | -11.12714 | 27350 ft | 452 kts | 79° |
| 2026-04-10 22:10 | 30.09320 | -11.07941 | 26632 ft | 446 kts | 79° |
| 2026-04-10 22:10 | 30.09586 | -11.04409 | 26095 ft | 442 kts | 80° |
| 2026-04-10 22:10 | 30.09763 | -11.02053 | 25737 ft | 439 kts | 80° |
| 2026-04-10 22:11 | 30.10110 | -10.97413 | 25030 ft | 434 kts | 81° |
| 2026-04-10 22:11 | 30.10280 | -10.95118 | 24684 ft | 431 kts | 81° |
| 2026-04-10 22:11 | 30.10534 | -10.91699 | 24164 ft | 427 kts | 82° |
| 2026-04-10 22:11 | 30.10784 | -10.88315 | 23643 ft | 423 kts | 82° |
| 2026-04-10 22:12 | 30.11033 | -10.84935 | 23118 ft | 420 kts | 82° |
| 2026-04-10 22:12 | 30.11357 | -10.80517 | 22428 ft | 417 kts | 82° |
| 2026-04-10 22:12 | 30.11600 | -10.77185 | 21904 ft | 414 kts | 82° |
| 2026-04-10 22:12 | 30.11759 | -10.75002 | 21558 ft | 412 kts | 83° |
| 2026-04-10 22:13 | 30.11996 | -10.71735 | 21057 ft | 408 kts | 83° |
| 2026-04-10 22:13 | 30.12310 | -10.67406 | 20395 ft | 406 kts | 83° |
| 2026-04-10 22:13 | 30.12542 | -10.64186 | 19900 ft | 403 kts | 83° |
| 2026-04-10 22:13 | 30.12772 | -10.60987 | 19404 ft | 400 kts | 83° |
| 2026-04-10 22:14 | 30.12925 | -10.58849 | 19071 ft | 399 kts | 83° |
| 2026-04-10 22:14 | 30.13227 | -10.54620 | 18409 ft | 396 kts | 83° |
| 2026-04-10 22:14 | 30.13376 | -10.52525 | 18080 ft | 395 kts | 83° |
| 2026-04-10 22:14 | 30.13598 | -10.49393 | 17586 ft | 392 kts | 83° |
| 2026-04-10 22:15 | 30.13892 | -10.45236 | 16924 ft | 388 kts | 83° |
| 2026-04-10 22:15 | 30.14036 | -10.43189 | 16594 ft | 386 kts | 83° |
| 2026-04-10 22:15 | 30.14252 | -10.40106 | 16105 ft | 383 kts | 83° |
| 2026-04-10 22:15 | 30.14534 | -10.36073 | 15480 ft | 380 kts | 83° |
| 2026-04-10 22:16 | 30.14746 | -10.33034 | 15003 ft | 377 kts | 84° |
| 2026-04-10 22:16 | 30.14884 | -10.31050 | 14688 ft | 375 kts | 84° |
| 2026-04-10 22:16 | 30.15159 | -10.27080 | 14111 ft | 371 kts | 84° |
| 2026-04-10 22:16 | 30.15294 | -10.25118 | 13846 ft | 370 kts | 84° |
| 2026-04-10 22:17 | 30.15496 | -10.22183 | 13447 ft | 368 kts | 84° |
| 2026-04-10 22:17 | 30.15762 | -10.18307 | 13020 ft | 357 kts | 84° |
| 2026-04-10 22:17 | 30.15954 | -10.15494 | 12762 ft | 348 kts | 84° |
| 2026-04-10 22:17 | 30.16141 | -10.12744 | 12484 ft | 332 kts | 84° |
| 2026-04-10 22:18 | 30.16316 | -10.10178 | 12218 ft | 315 kts | 84° |
| 2026-04-10 22:18 | 30.16428 | -10.08520 | 12055 ft | 311 kts | 84° |
| 2026-04-10 22:18 | 30.16595 | -10.06058 | 11801 ft | 306 kts | 84° |
| 2026-04-10 22:18 | 30.16814 | -10.02801 | 11393 ft | 305 kts | 84° |
| 2026-04-10 22:19 | 30.16977 | -10.00378 | 11069 ft | 303 kts | 84° |
| 2026-04-10 22:19 | 30.17139 | -9.97959 | 10745 ft | 303 kts | 84° |
| 2026-04-10 22:19 | 30.17248 | -9.96340 | 10527 ft | 302 kts | 84° |
| 2026-04-10 22:19 | 30.17461 | -9.93133 | 10094 ft | 300 kts | 84° |
| 2026-04-10 22:20 | 30.17620 | -9.90749 | 9771 ft | 298 kts | 84° |
| 2026-04-10 22:20 | 30.17724 | -9.89167 | 9555 ft | 298 kts | 84° |
| 2026-04-10 22:20 | 30.17882 | -9.86789 | 9232 ft | 297 kts | 84° |
| 2026-04-10 22:20 | 30.18197 | -9.83648 | 8801 ft | 294 kts | 73° |
| 2026-04-10 22:21 | 30.18853 | -9.81432 | 8513 ft | 292 kts | 68° |
| 2026-04-10 22:21 | 30.19306 | -9.79956 | 8313 ft | 291 kts | 69° |
| 2026-04-10 22:21 | 30.19980 | -9.77759 | 8014 ft | 290 kts | 69° |
| 2026-04-10 22:21 | 30.20655 | -9.75580 | 7716 ft | 288 kts | 68° |
| 2026-04-10 22:22 | 30.21330 | -9.73405 | 7417 ft | 287 kts | 68° |
| 2026-04-10 22:22 | 30.22230 | -9.70508 | 7018 ft | 286 kts | 68° |
| 2026-04-10 22:22 | 30.22679 | -9.69062 | 6819 ft | 285 kts | 68° |
| 2026-04-10 22:22 | 30.23346 | -9.66915 | 6521 ft | 284 kts | 68° |
| 2026-04-10 22:23 | 30.24012 | -9.64773 | 6223 ft | 283 kts | 68° |
| 2026-04-10 22:23 | 30.24673 | -9.62642 | 5927 ft | 282 kts | 68° |
| 2026-04-10 22:23 | 30.25331 | -9.60523 | 5630 ft | 281 kts | 68° |
| 2026-04-10 22:23 | 30.26205 | -9.57701 | 5280 ft | 278 kts | 68° |
| 2026-04-10 22:24 | 30.26635 | -9.56313 | 5116 ft | 277 kts | 68° |
| 2026-04-10 22:24 | 30.27287 | -9.54206 | 4866 ft | 276 kts | 68° |
| 2026-04-10 22:24 | 30.27930 | -9.52128 | 4619 ft | 275 kts | 68° |
| 2026-04-10 22:24 | 30.28572 | -9.50055 | 4372 ft | 273 kts | 68° |
| 2026-04-10 22:25 | 30.29206 | -9.48002 | 4123 ft | 271 kts | 68° |
| 2026-04-10 22:25 | 30.29836 | -9.45961 | 3871 ft | 267 kts | 68° |
| 2026-04-10 22:25 | 30.30639 | -9.43355 | 3512 ft | 250 kts | 68° |
| 2026-04-10 22:25 | 30.31019 | -9.42124 | 3339 ft | 242 kts | 68° |
| 2026-04-10 22:26 | 30.31575 | -9.40319 | 3078 ft | 233 kts | 68° |
| 2026-04-10 22:26 | 30.32101 | -9.38613 | 2983 ft | 217 kts | 68° |
| 2026-04-10 22:26 | 30.32738 | -9.36507 | 2956 ft | 203 kts | 68° |
| 2026-04-10 22:26 | 30.33198 | -9.34984 | 2891 ft | 198 kts | 68° |
| 2026-04-10 22:27 | 30.33498 | -9.33991 | 2851 ft | 196 kts | 69° |
| 2026-04-10 22:27 | 30.34088 | -9.32037 | 2865 ft | 193 kts | 68° |
| 2026-04-10 22:27 | 30.34533 | -9.30561 | 2821 ft | 193 kts | 68° |
| 2026-04-10 22:27 | 30.34959 | -9.29140 | 2797 ft | 180 kts | 68° |
| 2026-04-10 22:28 | 30.35234 | -9.28225 | 2772 ft | 181 kts | 68° |
| 2026-04-10 22:28 | 30.35784 | -9.26400 | 2705 ft | 179 kts | 68° |
| 2026-04-10 22:28 | 30.36055 | -9.25500 | 2699 ft | 179 kts | 68° |
| 2026-04-10 22:28 | 30.36460 | -9.24152 | 2720 ft | 179 kts | 68° |
| 2026-04-10 22:29 | 30.37004 | -9.22342 | 2694 ft | 173 kts | 68° |
| 2026-04-10 22:29 | 30.37257 | -9.21494 | 2670 ft | 164 kts | 68° |
| 2026-04-10 22:29 | 30.37625 | -9.20249 | 2700 ft | 164 kts | 71° |
| 2026-04-10 22:29 | 30.37400 | -9.18554 | 2630 ft | 167 kts | 128° |
| 2026-04-10 22:30 | 30.36810 | -9.17989 | 2603 ft | 164 kts | 158° |
| 2026-04-10 22:30 | 30.35743 | -9.17913 | 2610 ft | 153 kts | 204° |
| 2026-04-10 22:30 | 30.34799 | -9.18453 | 2730 ft | 155 kts | 211° |
| 2026-04-10 22:30 | 30.33823 | -9.18979 | 2692 ft | 153 kts | 208° |
| 2026-04-10 22:31 | 30.32855 | -9.19462 | 2712 ft | 153 kts | 208° |
| 2026-04-10 22:31 | 30.32095 | -9.20180 | 2615 ft | 134 kts | 248° |
| 2026-04-10 22:31 | 30.31937 | -9.21517 | 2508 ft | 125 kts | 272° |
| 2026-04-10 22:31 | 30.31924 | -9.22193 | 2505 ft | 126 kts | 271° |
| 2026-04-10 22:32 | 30.31910 | -9.23207 | 2503 ft | 127 kts | 271° |
| 2026-04-10 22:32 | 30.31909 | -9.24229 | 2501 ft | 127 kts | 272° |
| 2026-04-10 22:32 | 30.31921 | -9.25244 | 2482 ft | 126 kts | 273° |
| 2026-04-10 22:32 | 30.31927 | -9.26266 | 2341 ft | 129 kts | 271° |
| 2026-04-10 22:33 | 30.31926 | -9.27303 | 2202 ft | 127 kts | 272° |
| 2026-04-10 22:33 | 30.31935 | -9.28325 | 2030 ft | 127 kts | 272° |
| 2026-04-10 22:33 | 30.31955 | -9.29347 | 1855 ft | 128 kts | 272° |
| 2026-04-10 22:33 | 30.32003 | -9.30722 | 1626 ft | 129 kts | 271° |
| 2026-04-10 22:34 | 30.32037 | -9.31407 | 1496 ft | 130 kts | 272° |
| 2026-04-10 22:34 | 30.32083 | -9.32445 | 1312 ft | 129 kts | 270° |
| 2026-04-10 22:34 | 30.32110 | -9.33478 | 1129 ft | 128 kts | 270° |
| 2026-04-10 22:34 | 30.32126 | -9.34512 | 959 ft | 128 kts | 269° |
| 2026-04-10 22:35 | 30.32134 | -9.35537 | 792 ft | 128 kts | 269° |
| 2026-04-10 22:35 | 30.32162 | -9.36557 | 630 ft | 127 kts | 270° |
| 2026-04-10 22:35 | 30.32186 | -9.37573 | 489 ft | 126 kts | 269° |
| 2026-04-10 22:35 | 30.32212 | -9.38913 | 323 ft | 124 kts | 269° |
| 2026-04-10 22:36 | 30.32227 | -9.39583 | 274 ft | 127 kts | 270° |
| 2026-04-10 22:36 | 30.32256 | -9.40592 | 265 ft | 124 kts | 270° |
| 2026-04-10 22:36 | 30.32270 | -9.41529 | 262 ft | 93 kts | 271° |
| 2026-04-10 22:36 | 30.32283 | -9.42065 | 262 ft | 45 kts | 272° |
| 2026-04-10 22:37 | 30.32290 | -9.42347 | 262 ft | 33 kts | 271° |
| 2026-04-10 22:37 | 30.32296 | -9.42599 | 262 ft | 30 kts | 271° |
| 2026-04-10 22:37 | 30.32320 | -9.42783 | 262 ft | 15 kts | 322° |
| 2026-04-10 22:37 | 30.32444 | -9.42789 | 262 ft | 13 kts | 1° |
| 2026-04-10 22:38 | 30.32486 | -9.42764 | 262 ft | 10 kts | 67° |
| 2026-04-10 22:38 | 30.32488 | -9.42689 | 262 ft | 9 kts | 94° |
| 2026-04-10 22:38 | 30.32484 | -9.42612 | 262 ft | 10 kts | 89° |
| 2026-04-10 22:38 | 30.32484 | -9.42532 | 262 ft | 10 kts | 91° |
| 2026-04-10 22:39 | 30.32481 | -9.42406 | 262 ft | 14 kts | 92° |
| 2026-04-10 22:39 | 30.32479 | -9.42325 | 262 ft | 16 kts | 91° |
| 2026-04-10 22:39 | 30.32475 | -9.42122 | 262 ft | 21 kts | 91° |
| 2026-04-10 22:39 | 30.32471 | -9.42001 | 262 ft | 24 kts | 92° |
| 2026-04-10 22:40 | 30.32466 | -9.41797 | 262 ft | 26 kts | 92° |
| 2026-04-10 22:40 | 30.32462 | -9.41592 | 262 ft | 22 kts | 92° |
| 2026-04-10 22:40 | 30.32505 | -9.41524 | 262 ft | 12 kts | 1° |
| 2026-04-10 22:40 | 30.32600 | -9.41523 | 262 ft | 15 kts | 3° |
| 2026-04-10 22:41 | 30.32720 | -9.41517 | 262 ft | 19 kts | 1° |
| 2026-04-10 22:41 | 30.32814 | -9.41474 | 262 ft | 14 kts | 75° |
| 2026-04-10 22:41 | 30.32813 | -9.41346 | 262 ft | 18 kts | 90° |
| 2026-04-10 22:41 | 30.32816 | -9.41180 | 262 ft | 11 kts | 60° |
| 2026-04-10 22:42 | 30.32841 | -9.41165 | 262 ft | 3 kts | 353° |
| 2026-04-10 22:42 | 30.32869 | -9.41167 | 262 ft | 0 kts | 359° |